createdAt,value
2018-03-25T00:00:54.869Z,30.00
2018-03-25T00:01:54.856Z,32.00
2018-03-25T00:02:54.880Z,31.00
2018-03-25T00:03:54.894Z,31.30
2018-03-25T00:04:54.817Z,30.10
2018-03-25T00:05:54.819Z,33.10
2018-03-25T00:06:54.847Z,34.80
2018-03-25T00:07:54.818Z,33.20
2018-03-25T00:08:54.849Z,30.80
2018-03-25T00:09:54.824Z,33.30
2018-03-25T00:10:54.810Z,33.90
2018-03-25T00:11:54.785Z,31.00
2018-03-25T00:12:54.788Z,34.70
2018-03-25T00:13:54.828Z,32.20
2018-03-25T00:14:54.767Z,33.50
2018-03-25T00:15:54.782Z,32.40
2018-03-25T00:16:54.772Z,29.80
2018-03-25T00:17:54.796Z,34.60
2018-03-25T00:18:54.752Z,33.30
2018-03-25T00:19:54.770Z,34.20
2018-03-25T00:20:54.767Z,38.00
2018-03-25T00:21:54.746Z,35.10
2018-03-25T00:22:54.774Z,36.40
2018-03-25T00:23:54.735Z,34.10
2018-03-25T00:24:54.747Z,32.50
2018-03-25T00:25:54.738Z,31.90
2018-03-25T00:26:54.723Z,33.20
2018-03-25T00:27:54.751Z,37.40
2018-03-25T00:28:54.712Z,40.60
2018-03-25T00:29:54.697Z,34.40
2018-03-25T00:30:54.687Z,35.40
2018-03-25T00:31:54.700Z,35.90
2018-03-25T00:32:54.748Z,32.50
2018-03-25T00:33:54.683Z,37.60
2018-03-25T00:34:54.662Z,34.40
2018-03-25T00:35:54.648Z,33.60
2018-03-25T00:36:54.655Z,36.20
2018-03-25T00:37:54.687Z,35.40
2018-03-25T00:38:54.636Z,50.10
2018-03-25T00:39:54.627Z,45.00
2018-03-25T00:40:54.657Z,40.20
2018-03-25T00:41:54.639Z,32.00
2018-03-25T00:42:54.651Z,33.00
2018-03-25T00:43:54.611Z,31.80
2018-03-25T00:44:54.622Z,30.80
2018-03-25T00:45:54.609Z,32.70
2018-03-25T00:46:54.592Z,34.20
2018-03-25T00:47:54.640Z,32.40
2018-03-25T00:48:54.585Z,33.70
2018-03-25T00:49:54.572Z,37.60
2018-03-25T00:50:54.589Z,34.90
2018-03-25T00:51:54.576Z,46.80
2018-03-25T00:52:54.638Z,33.00
2018-03-25T00:53:54.597Z,35.30
2018-03-25T00:54:54.561Z,40.60
2018-03-25T00:55:54.562Z,39.70
2018-03-25T00:56:54.594Z,35.60
2018-03-25T00:57:54.543Z,35.40
2018-03-25T00:58:54.532Z,33.60
2018-03-25T00:59:54.523Z,36.00
2018-03-25T01:00:54.501Z,40.40
2018-03-25T01:01:54.557Z,38.50
2018-03-25T01:02:54.523Z,38.10
2018-03-25T01:03:54.510Z,40.80
2018-03-25T01:04:54.516Z,35.90
2018-03-25T01:05:54.487Z,40.20
2018-03-25T01:06:54.554Z,48.00
2018-03-25T01:07:54.496Z,41.00
2018-03-25T01:08:54.460Z,34.00
2018-03-25T01:09:54.464Z,34.10
2018-03-25T01:10:54.544Z,33.60
2018-03-25T01:11:54.485Z,32.00
2018-03-25T01:12:54.452Z,31.20
2018-03-25T01:13:54.441Z,36.90
2018-03-25T01:14:54.478Z,35.00
2018-03-25T01:15:54.446Z,32.90
2018-03-25T01:16:54.460Z,33.70
2018-03-25T01:17:54.417Z,37.40
2018-03-25T01:18:54.396Z,34.00
2018-03-25T01:19:54.420Z,33.70
2018-03-25T01:20:54.411Z,33.70
2018-03-25T01:21:54.472Z,30.90
2018-03-25T01:22:54.402Z,36.30
2018-03-25T01:23:54.376Z,34.10
2018-03-25T01:24:54.401Z,35.50
2018-03-25T01:25:54.366Z,34.10
2018-03-25T01:26:54.400Z,33.80
2018-03-25T01:27:57.113Z,34.30
2018-03-25T01:28:54.367Z,35.80
2018-03-25T01:29:54.354Z,36.20
2018-03-25T01:30:54.343Z,38.00
2018-03-25T01:31:54.366Z,35.50
2018-03-25T01:32:54.317Z,35.00
2018-03-25T01:33:54.306Z,33.60
2018-03-25T01:34:54.334Z,32.40
2018-03-25T01:35:54.321Z,37.00
2018-03-25T01:36:54.333Z,33.90
2018-03-25T01:37:54.313Z,34.90
2018-03-25T01:38:54.298Z,33.30
2018-03-25T01:39:54.296Z,35.20
2018-03-25T01:40:54.297Z,38.80
2018-03-25T01:41:54.324Z,34.80
2018-03-25T01:42:54.244Z,36.80
2018-03-25T01:43:54.252Z,31.60
2018-03-25T01:44:54.259Z,33.50
2018-03-25T01:45:54.308Z,33.10
2018-03-25T01:46:54.270Z,31.40
2018-03-25T01:47:54.244Z,32.90
2018-03-25T01:48:54.222Z,32.50
2018-03-25T01:49:54.269Z,33.10
2018-03-25T01:50:54.261Z,35.00
2018-03-25T01:51:54.232Z,34.00
2018-03-25T01:52:54.200Z,31.00
2018-03-25T01:53:54.203Z,32.40
2018-03-25T01:54:54.206Z,33.30
2018-03-25T01:55:54.237Z,31.40
2018-03-25T01:56:54.187Z,34.60
2018-03-25T01:57:54.160Z,34.30
2018-03-25T01:58:54.165Z,35.00
2018-03-25T01:59:54.156Z,36.60
2018-03-25T02:00:54.200Z,36.00
2018-03-25T02:01:54.164Z,37.70
2018-03-25T02:02:54.131Z,37.40
2018-03-25T02:03:54.134Z,34.30
2018-03-25T02:04:54.113Z,34.00
2018-03-25T02:05:54.158Z,36.20
2018-03-25T02:06:54.110Z,35.20
2018-03-25T02:07:54.123Z,36.80
2018-03-25T02:08:54.128Z,31.90
2018-03-25T02:09:54.097Z,35.10
2018-03-25T02:10:54.128Z,37.30
2018-03-25T02:11:54.062Z,36.00
2018-03-25T02:12:54.070Z,36.90
2018-03-25T02:13:54.076Z,35.10
2018-03-25T02:14:54.062Z,36.40
2018-03-25T02:15:54.077Z,36.70
2018-03-25T02:16:54.054Z,35.20
2018-03-25T02:17:54.054Z,37.00
2018-03-25T02:18:54.042Z,36.30
2018-03-25T02:19:54.022Z,33.90
2018-03-25T02:20:54.080Z,34.20
2018-03-25T02:21:53.994Z,35.90
2018-03-25T02:22:54.022Z,34.30
2018-03-25T02:23:54.009Z,37.20
2018-03-25T02:24:53.981Z,32.40
2018-03-25T02:25:54.021Z,37.30
2018-03-25T02:26:54.007Z,38.30
2018-03-25T02:27:53.992Z,39.80
2018-03-25T02:29:25.597Z,39.00
2018-03-25T02:29:53.958Z,40.30
2018-03-25T02:30:54.015Z,39.30
2018-03-25T02:31:53.941Z,38.70
2018-03-25T02:32:53.944Z,37.50
2018-03-25T02:33:53.926Z,39.60
2018-03-25T02:34:53.942Z,35.10
2018-03-25T02:35:53.938Z,33.80
2018-03-25T02:36:53.923Z,40.00
2018-03-25T02:37:53.902Z,38.60
2018-03-25T02:38:53.896Z,38.00
2018-03-25T02:39:53.909Z,34.60
2018-03-25T02:40:53.917Z,39.10
2018-03-25T02:41:53.868Z,35.10
2018-03-25T02:42:53.884Z,36.40
2018-03-25T02:43:53.858Z,39.70
2018-03-25T02:44:53.858Z,40.30
2018-03-25T02:45:53.886Z,38.90
2018-03-25T02:46:53.840Z,35.20
2018-03-25T02:47:53.852Z,37.30
2018-03-25T02:48:53.816Z,37.10
2018-03-25T02:50:18.206Z,34.20
2018-03-25T02:50:53.808Z,40.70
2018-03-25T02:51:53.834Z,34.20
2018-03-25T02:52:53.780Z,38.30
2018-03-25T02:53:53.806Z,36.20
2018-03-25T02:54:53.792Z,38.00
2018-03-25T02:55:53.833Z,37.50
2018-03-25T02:56:53.773Z,36.30
2018-03-25T02:57:53.779Z,38.90
2018-03-25T02:58:53.774Z,36.90
2018-03-25T02:59:53.761Z,33.90
2018-03-25T03:00:53.796Z,37.10
2018-03-25T03:01:53.782Z,36.20
2018-03-25T03:02:53.739Z,35.10
2018-03-25T03:03:53.723Z,34.00
2018-03-25T03:04:53.701Z,33.30
2018-03-25T03:05:53.769Z,35.60
2018-03-25T03:06:53.728Z,37.20
2018-03-25T03:07:53.696Z,38.80
2018-03-25T03:08:53.708Z,43.00
2018-03-25T03:09:53.682Z,40.00
2018-03-25T03:10:53.827Z,35.30
2018-03-25T03:11:53.668Z,37.30
2018-03-25T03:12:53.654Z,34.10
2018-03-25T03:13:53.654Z,36.70
2018-03-25T03:14:53.710Z,33.70
2018-03-25T03:15:53.660Z,35.20
2018-03-25T03:16:53.644Z,37.20
2018-03-25T03:17:53.639Z,36.00
2018-03-25T03:18:53.616Z,37.40
2018-03-25T03:19:53.650Z,34.50
2018-03-25T03:20:53.618Z,38.30
2018-03-25T03:21:53.620Z,40.00
2018-03-25T03:22:53.588Z,39.60
2018-03-25T03:23:53.593Z,38.30
2018-03-25T03:24:53.573Z,39.70
2018-03-25T03:25:53.602Z,39.20
2018-03-25T03:26:53.573Z,32.30
2018-03-25T03:27:53.569Z,39.80
2018-03-25T03:28:53.551Z,38.50
2018-03-25T03:29:53.550Z,36.10
2018-03-25T03:30:53.568Z,38.50
2018-03-25T03:32:15.624Z,45.90
2018-03-25T03:32:53.546Z,36.10
2018-03-25T03:33:53.530Z,37.50
2018-03-25T03:34:53.526Z,40.60
2018-03-25T03:35:53.569Z,36.70
2018-03-25T03:36:53.502Z,37.00
2018-03-25T03:37:53.522Z,38.90
2018-03-25T03:38:53.489Z,37.40
2018-03-25T03:39:53.473Z,35.30
2018-03-25T03:40:53.534Z,37.20
2018-03-25T03:41:53.452Z,37.40
2018-03-25T03:42:53.457Z,38.50
2018-03-25T03:43:53.447Z,37.70
2018-03-25T03:44:53.465Z,38.40
2018-03-25T03:45:53.480Z,37.10
2018-03-25T03:46:53.418Z,34.40
2018-03-25T03:47:53.450Z,37.20
2018-03-25T03:48:53.430Z,40.20
2018-03-25T03:49:53.406Z,34.30
2018-03-25T03:50:53.465Z,35.50
2018-03-25T03:51:53.436Z,38.80
2018-03-25T03:53:09.597Z,54.50
2018-03-25T03:53:53.381Z,42.30
2018-03-25T03:54:53.378Z,42.90
2018-03-25T03:55:53.426Z,41.00
2018-03-25T03:56:53.384Z,45.50
2018-03-25T03:57:53.368Z,44.30
2018-03-25T03:58:53.353Z,41.30
2018-03-25T03:59:53.336Z,38.00
2018-03-25T04:00:53.381Z,41.00
2018-03-25T04:01:53.323Z,40.80
2018-03-25T04:02:53.314Z,40.30
2018-03-25T04:03:53.331Z,39.40
2018-03-25T04:04:53.335Z,37.10
2018-03-25T04:05:53.389Z,39.70
2018-03-25T04:06:53.315Z,44.80
2018-03-25T04:07:53.305Z,44.50
2018-03-25T04:08:53.266Z,43.70
2018-03-25T04:09:53.273Z,38.90
2018-03-25T04:10:53.313Z,46.60
2018-03-25T04:11:53.321Z,43.50
2018-03-25T04:12:53.259Z,46.00
2018-03-25T04:15:29.928Z,50.80
2018-03-25T04:16:29.863Z,46.60
2018-03-25T04:17:29.853Z,42.30
2018-03-25T04:18:29.865Z,41.70
2018-03-25T04:19:54.991Z,38.80
2018-03-25T04:20:39.044Z,43.90
2018-03-25T04:21:29.848Z,45.70
2018-03-25T04:22:29.845Z,45.40
2018-03-25T04:23:29.820Z,45.60
2018-03-25T04:24:29.818Z,48.90
2018-03-25T04:25:29.800Z,49.60
2018-03-25T04:26:29.891Z,50.00
2018-03-25T04:27:29.796Z,43.20
2018-03-25T04:28:29.836Z,47.50
2018-03-25T04:29:29.796Z,46.40
2018-03-25T04:30:29.761Z,44.70
2018-03-25T04:31:29.825Z,42.90
2018-03-25T04:32:29.768Z,44.10
2018-03-25T04:33:29.741Z,47.40
2018-03-25T04:34:29.746Z,41.60
2018-03-25T04:35:29.746Z,45.00
2018-03-25T04:36:29.778Z,43.90
2018-03-25T04:37:29.728Z,44.00
2018-03-25T04:38:29.715Z,44.70
2018-03-25T04:39:29.762Z,46.00
2018-03-25T04:40:29.693Z,43.20
2018-03-25T04:41:29.819Z,47.00
2018-03-25T04:42:29.682Z,49.40
2018-03-25T04:43:29.689Z,45.00
2018-03-25T04:44:29.690Z,46.10
2018-03-25T04:45:29.661Z,44.20
2018-03-25T04:46:29.687Z,44.20
2018-03-25T04:47:29.648Z,45.30
2018-03-25T04:48:29.635Z,43.60
2018-03-25T04:49:29.633Z,40.10
2018-03-25T04:50:29.669Z,43.90
2018-03-25T04:51:29.632Z,40.20
2018-03-25T04:52:29.626Z,42.50
2018-03-25T04:53:46.556Z,44.80
2018-03-25T04:54:29.589Z,48.90
2018-03-25T04:55:29.634Z,46.10
2018-03-25T04:56:29.588Z,45.60
2018-03-25T04:57:29.582Z,45.00
2018-03-25T04:58:43.610Z,42.60
2018-03-25T04:59:29.597Z,46.80
2018-03-25T05:00:43.679Z,43.90
2018-03-25T05:01:29.552Z,41.80
2018-03-25T05:02:29.555Z,39.70
2018-03-25T05:03:29.525Z,43.30
2018-03-25T05:04:29.529Z,46.00
2018-03-25T05:05:29.530Z,43.70
2018-03-25T05:06:29.538Z,41.40
2018-03-25T05:07:29.514Z,45.70
2018-03-25T05:08:29.502Z,41.20
2018-03-25T05:09:29.514Z,48.50
2018-03-25T05:10:29.487Z,48.60
2018-03-25T05:11:29.535Z,53.00
2018-03-25T05:12:29.480Z,59.20
2018-03-25T05:13:29.508Z,60.00
2018-03-25T05:14:29.449Z,56.40
2018-03-25T05:15:29.454Z,54.40
2018-03-25T05:16:29.473Z,59.70
2018-03-25T05:17:29.419Z,52.30
2018-03-25T05:18:29.419Z,50.20
2018-03-25T05:19:29.408Z,49.20
2018-03-25T05:20:29.412Z,48.50
2018-03-25T05:21:30.233Z,47.90
2018-03-25T05:22:29.414Z,45.70
2018-03-25T05:23:29.371Z,46.70
2018-03-25T05:24:29.372Z,50.30
2018-03-25T05:25:29.373Z,48.50
2018-03-25T05:26:29.423Z,48.60
2018-03-25T05:27:29.356Z,45.20
2018-03-25T05:28:29.362Z,45.60
2018-03-25T05:29:29.355Z,45.30
2018-03-25T05:30:29.323Z,46.00
2018-03-25T05:31:29.379Z,44.60
2018-03-25T05:32:29.315Z,38.60
2018-03-25T05:33:29.303Z,42.80
2018-03-25T05:34:29.304Z,43.00
2018-03-25T05:35:29.300Z,46.10
2018-03-25T05:36:29.333Z,46.90
2018-03-25T05:37:29.297Z,49.60
2018-03-25T05:38:29.297Z,46.90
2018-03-25T05:39:29.285Z,48.40
2018-03-25T05:40:29.268Z,44.00
2018-03-25T05:41:30.993Z,47.80
2018-03-25T05:42:29.244Z,41.40
2018-03-25T05:43:30.267Z,51.90
2018-03-25T05:44:29.231Z,54.10
2018-03-25T05:45:30.514Z,55.80
2018-03-25T05:46:29.847Z,43.90
2018-03-25T05:47:30.606Z,48.30
2018-03-25T05:48:29.211Z,48.40
2018-03-25T05:49:29.381Z,48.70
2018-03-25T05:50:29.201Z,48.10
2018-03-25T05:51:31.467Z,47.30
2018-03-25T05:52:29.263Z,44.00
2018-03-25T05:53:30.069Z,48.00
2018-03-25T05:54:29.187Z,49.70
2018-03-25T05:55:29.501Z,41.60
2018-03-25T05:56:29.167Z,37.80
2018-03-25T05:57:29.193Z,38.60
2018-03-25T05:58:29.141Z,40.00
2018-03-25T05:59:29.142Z,36.50
2018-03-25T06:00:29.126Z,39.40
2018-03-25T06:01:29.135Z,38.00
2018-03-25T06:02:29.170Z,41.20
2018-03-25T06:03:29.143Z,43.60
2018-03-25T06:04:30.046Z,40.10
2018-03-25T06:05:29.090Z,41.20
2018-03-25T06:06:31.991Z,38.40
2018-03-25T06:07:29.135Z,38.30
2018-03-25T06:08:30.478Z,42.10
2018-03-25T06:09:29.117Z,43.00
2018-03-25T06:10:30.150Z,44.10
2018-03-25T06:11:29.095Z,38.20
2018-03-25T06:12:31.672Z,39.40
2018-03-25T06:13:30.825Z,39.70
2018-03-25T06:14:31.656Z,39.00
2018-03-25T06:15:30.707Z,41.10
2018-03-25T06:16:32.390Z,39.20
2018-03-25T06:17:29.102Z,38.30
2018-03-25T06:18:29.079Z,39.50
2018-03-25T06:19:29.041Z,36.60
2018-03-25T06:20:29.051Z,34.00
2018-03-25T06:21:29.034Z,34.20
2018-03-25T06:22:29.050Z,33.90
2018-03-25T06:23:29.027Z,34.20
2018-03-25T06:24:29.009Z,35.70
2018-03-25T06:25:29.033Z,34.60
2018-03-25T06:26:29.017Z,36.10
2018-03-25T06:27:29.255Z,32.40
2018-03-25T06:28:29.034Z,32.20
2018-03-25T06:29:29.160Z,29.90
2018-03-25T06:30:28.983Z,31.70
2018-03-25T06:31:29.025Z,29.00
2018-03-25T06:32:29.557Z,31.30
2018-03-25T06:33:28.979Z,27.60
2018-03-25T06:34:28.989Z,30.30
2018-03-25T06:35:29.013Z,29.10
2018-03-25T06:36:28.982Z,27.60
2018-03-25T06:37:28.994Z,30.50
2018-03-25T06:38:28.986Z,29.90
2018-03-25T06:39:28.942Z,29.40
2018-03-25T06:40:28.955Z,32.10
2018-03-25T06:41:28.943Z,30.10
2018-03-25T06:42:28.997Z,30.40
2018-03-25T06:43:30.857Z,28.40
2018-03-25T06:44:28.944Z,30.10
2018-03-25T06:45:28.981Z,30.30
2018-03-25T06:46:28.936Z,29.90
2018-03-25T06:47:28.997Z,27.80
2018-03-25T06:48:28.951Z,24.50
2018-03-25T06:49:28.930Z,27.60
2018-03-25T06:50:28.932Z,26.50
2018-03-25T06:51:28.931Z,28.30
2018-03-25T06:52:28.928Z,28.70
2018-03-25T06:53:28.990Z,27.80
2018-03-25T06:54:28.936Z,29.00
2018-03-25T06:55:28.934Z,26.50
2018-03-25T06:56:28.937Z,27.90
2018-03-25T06:57:28.917Z,28.20
2018-03-25T06:58:28.939Z,27.20
2018-03-25T06:59:28.926Z,23.80
2018-03-25T07:00:29.465Z,28.30
2018-03-25T07:01:28.912Z,25.80
2018-03-25T07:02:28.948Z,24.60
2018-03-25T07:03:28.938Z,26.90
2018-03-25T07:04:28.899Z,25.40
2018-03-25T07:05:28.905Z,25.10
2018-03-25T07:06:28.893Z,24.20
2018-03-25T07:07:28.976Z,27.60
2018-03-25T07:08:29.583Z,27.10
2018-03-25T07:09:28.908Z,28.30
2018-03-25T07:10:28.911Z,25.60
2018-03-25T07:11:28.913Z,23.70
2018-03-25T07:12:28.898Z,25.30
2018-03-25T07:13:28.951Z,27.30
2018-03-25T07:14:28.908Z,25.00
2018-03-25T07:15:28.920Z,27.20
2018-03-25T07:16:28.903Z,24.20
2018-03-25T07:17:28.924Z,27.70
2018-03-25T07:18:28.941Z,28.20
2018-03-25T07:19:28.923Z,25.60
2018-03-25T07:20:28.895Z,25.40
2018-03-25T07:21:28.902Z,28.00
2018-03-25T07:22:29.701Z,26.90
2018-03-25T07:23:28.937Z,28.80
2018-03-25T07:24:28.909Z,28.00
2018-03-25T07:25:29.011Z,28.30
2018-03-25T07:26:28.916Z,28.60
2018-03-25T07:27:29.246Z,27.70
2018-03-25T07:28:28.933Z,25.00
2018-03-25T07:29:28.919Z,28.00
2018-03-25T07:30:29.129Z,24.30
2018-03-25T07:31:28.969Z,26.30
2018-03-25T07:32:29.108Z,28.20
2018-03-25T07:33:28.970Z,26.90
2018-03-25T07:34:30.021Z,22.90
2018-03-25T07:35:31.939Z,27.90
2018-03-25T07:36:28.949Z,27.00
2018-03-25T07:37:29.326Z,27.10
2018-03-25T07:38:28.952Z,29.10
2018-03-25T07:39:28.956Z,27.60
2018-03-25T07:40:29.059Z,26.40
2018-03-25T07:41:28.975Z,28.00
2018-03-25T07:42:29.337Z,28.60
2018-03-25T07:43:29.283Z,26.20
2018-03-25T07:44:28.973Z,27.10
2018-03-25T07:45:28.981Z,26.80
2018-03-25T07:46:29.204Z,29.70
2018-03-25T07:47:29.039Z,27.00
2018-03-25T07:48:29.130Z,28.00
2018-03-25T07:49:29.072Z,27.70
2018-03-25T07:50:28.970Z,27.30
2018-03-25T07:51:28.964Z,26.00
2018-03-25T07:52:29.275Z,25.10
2018-03-25T07:53:29.024Z,31.20
2018-03-25T07:54:29.209Z,26.70
2018-03-25T07:55:29.619Z,26.60
2018-03-25T07:56:29.336Z,28.70
2018-03-25T07:57:30.143Z,29.50
2018-03-25T07:58:29.020Z,34.20
2018-03-25T07:59:29.691Z,26.60
2018-03-25T08:00:29.078Z,27.30
2018-03-25T08:01:29.889Z,28.30
2018-03-25T08:02:29.245Z,25.70
2018-03-25T08:03:29.563Z,25.90
2018-03-25T08:04:29.106Z,26.30
2018-03-25T08:05:29.053Z,27.70
2018-03-25T08:06:29.151Z,33.60
2018-03-25T08:07:29.073Z,28.40
2018-03-25T08:08:29.106Z,29.60
2018-03-25T08:09:29.081Z,27.60
2018-03-25T08:10:29.225Z,27.70
2018-03-25T08:11:29.160Z,27.30
2018-03-25T08:12:29.211Z,29.30
2018-03-25T08:13:29.228Z,27.20
2018-03-25T08:14:29.440Z,27.60
2018-03-25T08:15:30.321Z,25.90
2018-03-25T08:16:29.180Z,27.60
2018-03-25T08:17:30.300Z,28.00
2018-03-25T08:18:29.114Z,27.10
2018-03-25T08:19:29.122Z,27.50
2018-03-25T08:20:29.216Z,27.20
2018-03-25T08:21:29.140Z,26.40
2018-03-25T08:22:29.150Z,26.80
2018-03-25T08:23:29.148Z,28.90
2018-03-25T08:24:29.172Z,25.20
2018-03-25T08:25:29.170Z,28.10
2018-03-25T08:26:29.215Z,27.20
2018-03-25T08:27:29.178Z,27.70
2018-03-25T08:28:29.177Z,25.90
2018-03-25T08:29:29.171Z,25.30
2018-03-25T08:30:29.221Z,26.60
2018-03-25T08:31:29.236Z,28.40
2018-03-25T08:32:29.206Z,25.50
2018-03-25T08:33:29.232Z,25.60
2018-03-25T08:34:29.236Z,27.70
2018-03-25T08:35:29.369Z,26.10
2018-03-25T08:36:29.239Z,26.50
2018-03-25T08:37:29.257Z,26.20
2018-03-25T08:38:29.244Z,25.40
2018-03-25T08:39:29.249Z,28.20
2018-03-25T08:40:29.340Z,27.10
2018-03-25T08:41:29.291Z,27.40
2018-03-25T08:42:29.300Z,27.80
2018-03-25T08:43:29.303Z,26.50
2018-03-25T08:44:29.316Z,26.30
2018-03-25T08:45:29.377Z,24.90
2018-03-25T08:46:30.858Z,25.70
2018-03-25T08:47:29.343Z,27.30
2018-03-25T08:48:29.364Z,27.60
2018-03-25T08:49:29.369Z,26.70
2018-03-25T08:50:29.407Z,26.70
2018-03-25T08:51:29.379Z,27.80
2018-03-25T08:52:29.365Z,26.10
2018-03-25T08:53:29.376Z,27.60
2018-03-25T08:54:29.383Z,26.70
2018-03-25T08:55:37.301Z,25.90
2018-03-25T08:56:29.415Z,23.50
2018-03-25T08:57:29.429Z,25.20
2018-03-25T08:58:29.442Z,25.80
2018-03-25T08:59:29.431Z,25.60
2018-03-25T09:00:29.505Z,26.10
2018-03-25T09:01:29.449Z,23.20
2018-03-25T09:02:29.732Z,24.70
2018-03-25T09:03:29.490Z,24.90
2018-03-25T09:04:29.499Z,23.40
2018-03-25T09:05:29.536Z,24.00
2018-03-25T09:06:29.561Z,25.70
2018-03-25T09:07:29.500Z,25.10
2018-03-25T09:08:29.506Z,24.80
2018-03-25T09:09:29.542Z,26.60
2018-03-25T09:10:29.570Z,25.30
2018-03-25T09:11:29.561Z,26.60
2018-03-25T09:12:29.562Z,29.70
2018-03-25T09:13:29.575Z,24.10
2018-03-25T09:14:29.569Z,26.10
2018-03-25T09:15:29.630Z,24.50
2018-03-25T09:16:29.699Z,26.80
2018-03-25T09:17:29.625Z,22.60
2018-03-25T09:18:29.626Z,24.30
2018-03-25T09:19:29.627Z,22.90
2018-03-25T09:20:29.722Z,25.30
2018-03-25T09:21:29.641Z,21.30
2018-03-25T09:22:29.663Z,23.70
2018-03-25T09:23:29.685Z,24.10
2018-03-25T09:24:29.714Z,21.80
2018-03-25T09:25:29.752Z,22.90
2018-03-25T09:26:29.688Z,20.30
2018-03-25T09:27:29.738Z,21.10
2018-03-25T09:28:29.706Z,21.10
2018-03-25T09:29:29.745Z,25.50
2018-03-25T09:30:29.810Z,22.10
2018-03-25T09:31:29.770Z,34.80
2018-03-25T09:32:29.765Z,28.30
2018-03-25T09:33:29.760Z,22.40
2018-03-25T09:34:29.796Z,22.10
2018-03-25T09:35:29.869Z,21.30
2018-03-25T09:36:29.818Z,21.60
2018-03-25T09:37:29.819Z,23.10
2018-03-25T09:38:29.821Z,23.50
2018-03-25T09:39:29.852Z,22.20
2018-03-25T09:40:29.935Z,20.90
2018-03-25T09:41:29.881Z,19.80
2018-03-25T09:42:29.876Z,22.30
2018-03-25T09:43:29.888Z,21.20
2018-03-25T09:44:29.929Z,21.70
2018-03-25T09:45:29.961Z,22.80
2018-03-25T09:46:29.969Z,21.60
2018-03-25T09:47:29.957Z,22.90
2018-03-25T09:48:29.949Z,32.30
2018-03-25T09:49:30.010Z,58.70
2018-03-25T09:50:30.009Z,23.90
2018-03-25T09:51:30.003Z,34.70
2018-03-25T09:52:30.006Z,37.90
2018-03-25T09:53:30.114Z,25.50
2018-03-25T09:54:30.023Z,23.70
2018-03-25T09:55:30.090Z,24.50
2018-03-25T09:56:30.066Z,21.80
2018-03-25T09:57:30.076Z,29.80
2018-03-25T09:58:30.128Z,26.10
2018-03-25T09:59:30.111Z,19.10
2018-03-25T10:00:30.185Z,20.60
2018-03-25T10:01:30.130Z,23.00
2018-03-25T10:02:30.130Z,22.90
2018-03-25T10:03:30.151Z,21.70
2018-03-25T10:04:30.194Z,22.60
2018-03-25T10:05:30.254Z,21.80
2018-03-25T10:06:30.203Z,21.10
2018-03-25T10:07:30.207Z,22.20
2018-03-25T10:08:30.234Z,20.70
2018-03-25T10:09:30.251Z,20.90
2018-03-25T10:10:30.320Z,21.70
2018-03-25T10:11:30.277Z,21.90
2018-03-25T10:12:30.271Z,23.40
2018-03-25T10:13:30.317Z,22.60
2018-03-25T10:14:30.320Z,22.50
2018-03-25T10:15:30.387Z,19.90
2018-03-25T10:16:30.329Z,16.30
2018-03-25T10:17:30.379Z,21.00
2018-03-25T10:18:30.386Z,20.00
2018-03-25T10:19:30.391Z,22.00
2018-03-25T10:20:30.437Z,20.90
2018-03-25T10:21:30.442Z,20.00
2018-03-25T10:22:30.444Z,19.80
2018-03-25T10:23:30.449Z,22.40
2018-03-25T10:24:30.451Z,20.80
2018-03-25T10:25:30.520Z,21.10
2018-03-25T10:26:30.502Z,19.70
2018-03-25T10:27:30.506Z,21.00
2018-03-25T10:28:30.521Z,21.80
2018-03-25T10:29:30.543Z,21.30
2018-03-25T10:30:30.622Z,22.90
2018-03-25T10:31:30.568Z,22.60
2018-03-25T10:32:30.572Z,27.40
2018-03-25T10:33:30.580Z,24.80
2018-03-25T10:34:30.642Z,23.80
2018-03-25T10:35:30.678Z,22.70
2018-03-25T10:36:30.640Z,22.30
2018-03-25T10:37:30.643Z,20.90
2018-03-25T10:38:30.697Z,22.80
2018-03-25T10:39:30.691Z,21.90
2018-03-25T10:40:30.752Z,21.90
2018-03-25T10:41:30.710Z,23.10
2018-03-25T10:42:30.732Z,22.40
2018-03-25T10:43:30.788Z,19.90
2018-03-25T10:44:30.756Z,21.80
2018-03-25T10:45:30.815Z,19.40
2018-03-25T10:46:30.764Z,20.60
2018-03-25T10:47:30.805Z,21.20
2018-03-25T10:48:30.817Z,21.60
2018-03-25T10:49:30.874Z,21.30
2018-03-25T10:50:30.879Z,22.70
2018-03-25T10:51:30.848Z,22.00
2018-03-25T10:52:30.878Z,21.60
2018-03-25T10:53:30.875Z,21.20
2018-03-25T10:54:30.886Z,22.50
2018-03-25T10:55:30.942Z,20.80
2018-03-25T10:56:30.984Z,20.20
2018-03-25T10:57:30.988Z,23.40
2018-03-25T10:58:30.945Z,20.90
2018-03-25T10:59:30.958Z,22.70
2018-03-25T11:00:31.063Z,22.90
2018-03-25T11:01:31.001Z,20.70
2018-03-25T11:02:31.005Z,22.80
2018-03-25T11:03:31.047Z,22.20
2018-03-25T11:04:31.078Z,21.60
2018-03-25T11:05:31.126Z,21.20
2018-03-25T11:06:31.070Z,22.10
2018-03-25T11:07:31.132Z,21.30
2018-03-25T11:08:31.127Z,21.00
2018-03-25T11:09:31.124Z,20.40
2018-03-25T11:10:31.197Z,21.20
2018-03-25T11:11:31.189Z,21.70
2018-03-25T11:12:31.191Z,22.60
2018-03-25T11:13:31.189Z,21.90
2018-03-25T11:14:31.223Z,20.50
2018-03-25T11:15:31.310Z,20.40
2018-03-25T11:16:31.304Z,22.90
2018-03-25T11:17:31.261Z,19.70
2018-03-25T11:18:31.298Z,21.70
2018-03-25T11:19:32.344Z,20.70
2018-03-25T11:20:31.371Z,20.40
2018-03-25T11:21:31.314Z,21.80
2018-03-25T11:22:31.372Z,20.40
2018-03-25T11:23:31.378Z,21.80
2018-03-25T11:24:31.381Z,21.70
2018-03-25T11:25:31.438Z,21.70
2018-03-25T11:26:31.445Z,21.80
2018-03-25T11:27:31.439Z,21.20
2018-03-25T11:28:31.438Z,22.10
2018-03-25T11:29:31.466Z,21.70
2018-03-25T11:30:32.377Z,21.10
2018-03-25T11:31:31.497Z,21.40
2018-03-25T11:32:31.519Z,18.70
2018-03-25T11:33:31.552Z,19.10
2018-03-25T11:34:31.593Z,20.80
2018-03-25T11:35:31.623Z,21.10
2018-03-25T11:36:31.601Z,20.00
2018-03-25T11:37:31.881Z,19.70
2018-03-25T11:38:31.636Z,20.20
2018-03-25T11:39:31.633Z,20.30
2018-03-25T11:40:31.694Z,20.70
2018-03-25T11:41:31.685Z,21.40
2018-03-25T11:42:31.686Z,18.60
2018-03-25T11:43:31.700Z,19.50
2018-03-25T11:44:31.726Z,20.70
2018-03-25T11:45:31.800Z,19.60
2018-03-25T11:46:31.747Z,19.80
2018-03-25T11:47:31.853Z,20.00
2018-03-25T11:48:31.868Z,18.60
2018-03-25T11:49:31.847Z,18.00
2018-03-25T11:50:31.871Z,18.70
2018-03-25T11:51:32.369Z,19.00
2018-03-25T11:52:31.872Z,18.60
2018-03-25T11:53:31.873Z,18.60
2018-03-25T11:54:31.893Z,20.30
2018-03-25T11:55:32.897Z,18.60
2018-03-25T11:56:32.070Z,20.40
2018-03-25T11:57:31.974Z,20.40
2018-03-25T11:58:31.978Z,18.90
2018-03-25T11:59:31.998Z,18.40
2018-03-25T12:00:33.334Z,17.60
2018-03-25T12:01:32.005Z,19.30
2018-03-25T12:02:32.060Z,19.40
2018-03-25T12:03:32.058Z,18.20
2018-03-25T12:04:32.095Z,17.80
2018-03-25T12:05:32.165Z,18.70
2018-03-25T12:06:32.283Z,18.50
2018-03-25T12:07:32.329Z,19.00
2018-03-25T12:08:32.156Z,18.40
2018-03-25T12:09:32.141Z,21.30
2018-03-25T12:10:34.898Z,18.80
2018-03-25T12:11:32.185Z,19.20
2018-03-25T12:12:32.340Z,18.40
2018-03-25T12:13:32.197Z,18.00
2018-03-25T12:14:32.240Z,20.30
2018-03-25T12:15:32.291Z,19.10
2018-03-25T12:16:32.406Z,21.60
2018-03-25T12:17:32.266Z,17.20
2018-03-25T12:18:32.309Z,17.50
2018-03-25T12:19:32.342Z,18.10
2018-03-25T12:20:32.412Z,19.70
2018-03-25T12:21:32.325Z,18.40
2018-03-25T12:22:32.372Z,20.70
2018-03-25T12:23:32.366Z,18.60
2018-03-25T12:24:32.382Z,19.60
2018-03-25T12:25:32.440Z,20.60
2018-03-25T12:26:32.433Z,19.70
2018-03-25T12:27:32.432Z,17.40
2018-03-25T12:28:32.433Z,19.50
2018-03-25T12:29:32.476Z,18.50
2018-03-25T12:30:32.509Z,17.70
2018-03-25T12:31:32.497Z,17.60
2018-03-25T12:32:32.507Z,17.70
2018-03-25T12:33:32.526Z,18.70
2018-03-25T12:34:32.583Z,18.50
2018-03-25T12:35:32.615Z,19.70
2018-03-25T12:36:32.615Z,18.40
2018-03-25T12:37:32.604Z,17.90
2018-03-25T12:38:32.621Z,19.20
2018-03-25T12:39:32.698Z,19.70
2018-03-25T12:40:32.680Z,16.80
2018-03-25T12:41:32.660Z,18.20
2018-03-25T12:42:32.682Z,18.20
2018-03-25T12:43:32.689Z,19.60
2018-03-25T12:44:32.738Z,19.00
2018-03-25T12:45:32.699Z,18.00
2018-03-25T12:46:32.740Z,17.40
2018-03-25T12:47:32.739Z,17.10
2018-03-25T12:48:32.756Z,17.50
2018-03-25T12:49:32.822Z,18.40
2018-03-25T12:50:32.805Z,19.30
2018-03-25T12:51:32.860Z,18.50
2018-03-25T12:52:32.836Z,18.50
2018-03-25T12:53:32.821Z,17.30
2018-03-25T12:54:32.909Z,18.30